This is the latest recevied weather packets stored in our database for station/object OE3PDB-10. If no packets are shown the sender has not sent any weather packets the latest 1 day(s).
| Time | Temp. | Humidity | Pressure | Rain* | Wind** | Luminosity | Snow |
|---|---|---|---|---|---|---|---|
| 1778078443 | 23.89° C | 39% | 1111 hPa | 0 mm | - | - | - |
| 1778077243 | 24.44° C | 39% | 1111 hPa | 0 mm | - | - | - |
| 1778076643 | 24.44° C | 39% | 1111 hPa | 0 mm | - | - | - |
| 1778076043 | 23.89° C | 39% | 1111 hPa | 0 mm | - | - | - |
| 1778075443 | 24.44° C | 39% | 1111 hPa | 0 mm | - | - | - |
| 1778074843 | 24.44° C | 38% | 1111 hPa | 0 mm | - | - | - |
| 1778074243 | 24.44° C | 38% | 1111 hPa | 0 mm | - | - | - |
| 1778073643 | 24.44° C | 38% | 1111 hPa | 0 mm | - | - | - |
| 1778066443 | 21.67° C | 47% | 1111 hPa | 0 mm | - | - | - |
| 1778051444 | 22.78° C | 51% | 1111 hPa | 0 mm | - | - | - |
| 1778050844 | 21.67° C | 55% | 1111 hPa | 0 mm | - | - | - |
| 1778050244 | 17.22° C | 62% | 1111 hPa | 0 mm | - | - | - |
| 1778049644 | 16.67° C | 62% | 1111 hPa | 0 mm | - | - | - |
| 1778049044 | 16.67° C | 63% | 1111 hPa | 0 mm | - | - | - |
| 1778048444 | 16.11° C | 65% | 1111 hPa | 0 mm | - | - | - |
| 1778047844 | 15.56° C | 66% | 1111 hPa | 0 mm | - | - | - |
| 1778047244 | 15.56° C | 66% | 1111 hPa | 0 mm | - | - | - |
| 1778046644 | 15° C | 68% | 1111 hPa | 0 mm | - | - | - |
| 1778046044 | 15° C | 68% | 1111 hPa | 0 mm | - | - | - |
| 1778045444 | 15° C | 69% | 1111 hPa | 0 mm | - | - | - |
| 1778044844 | 15° C | 71% | 1111 hPa | 0 mm | - | - | - |
| 1778044244 | 14.44° C | 72% | 1111 hPa | 0 mm | - | - | - |
| 1778043644 | 13.89° C | 72% | 1111 hPa | 0 mm | - | - | - |
| 1778043044 | 13.33° C | 73% | 1111 hPa | 0 mm | - | - | - |
| 1778042444 | 13.33° C | 74% | 1111 hPa | 0 mm | - | - | - |
* Rain latest hour (hover to see other rain measurements)
** Current wind speed in m/s (hover to see current wind gust speed)